sensor_id;sensor_type;location;lat;lon;timestamp;P1;durP1;ratioP1;P2;durP2;ratioP2
9976;SDS011;5029;47.378;11.776;2023-02-11T00:03:09;7.30;;;3.20;;
9976;SDS011;5029;47.378;11.776;2023-02-11T00:08:12;3.43;;;2.83;;
9976;SDS011;5029;47.378;11.776;2023-02-11T00:13:17;5.23;;;3.27;;
9976;SDS011;5029;47.378;11.776;2023-02-11T00:18:22;4.67;;;3.53;;
9976;SDS011;5029;47.378;11.776;2023-02-11T00:23:25;3.87;;;2.90;;
9976;SDS011;5029;47.378;11.776;2023-02-11T00:28:29;3.20;;;2.80;;
9976;SDS011;5029;47.378;11.776;2023-02-11T00:33:34;5.43;;;3.50;;
9976;SDS011;5029;47.378;11.776;2023-02-11T00:38:37;6.47;;;3.90;;
9976;SDS011;5029;47.378;11.776;2023-02-11T00:43:41;4.77;;;3.53;;
9976;SDS011;5029;47.378;11.776;2023-02-11T00:48:46;6.60;;;3.10;;
9976;SDS011;5029;47.378;11.776;2023-02-11T00:53:49;5.67;;;3.90;;
9976;SDS011;5029;47.378;11.776;2023-02-11T00:58:53;4.73;;;3.90;;
9976;SDS011;5029;47.378;11.776;2023-02-11T01:03:58;6.33;;;4.10;;
9976;SDS011;5029;47.378;11.776;2023-02-11T01:09:02;4.77;;;4.17;;
9976;SDS011;5029;47.378;11.776;2023-02-11T01:14:05;6.57;;;4.23;;
9976;SDS011;5029;47.378;11.776;2023-02-11T01:19:10;5.40;;;3.90;;
9976;SDS011;5029;47.378;11.776;2023-02-11T01:24:13;6.00;;;3.87;;
9976;SDS011;5029;47.378;11.776;2023-02-11T01:29:17;5.50;;;3.97;;
9976;SDS011;5029;47.378;11.776;2023-02-11T01:34:22;7.10;;;4.30;;
9976;SDS011;5029;47.378;11.776;2023-02-11T01:39:25;4.67;;;3.87;;
9976;SDS011;5029;47.378;11.776;2023-02-11T01:44:31;4.83;;;3.63;;
9976;SDS011;5029;47.378;11.776;2023-02-11T01:49:38;6.47;;;3.80;;
9976;SDS011;5029;47.378;11.776;2023-02-11T01:54:47;4.63;;;3.40;;
9976;SDS011;5029;47.378;11.776;2023-02-11T02:00:10;3.97;;;3.37;;
9976;SDS011;5029;47.378;11.776;2023-02-11T02:05:20;4.93;;;3.30;;
9976;SDS011;5029;47.378;11.776;2023-02-11T02:10:27;4.90;;;3.70;;
9976;SDS011;5029;47.378;11.776;2023-02-11T02:15:33;5.83;;;3.63;;
9976;SDS011;5029;47.378;11.776;2023-02-11T02:37:32;5.57;;;4.00;;
9976;SDS011;5029;47.378;11.776;2023-02-11T02:42:39;4.47;;;3.57;;
9976;SDS011;5029;47.378;11.776;2023-02-11T02:47:45;8.50;;;4.03;;
9976;SDS011;5029;47.378;11.776;2023-02-11T02:52:51;6.00;;;4.17;;
9976;SDS011;5029;47.378;11.776;2023-02-11T02:58:14;5.20;;;3.83;;
9976;SDS011;5029;47.378;11.776;2023-02-11T03:03:44;7.80;;;3.83;;
9976;SDS011;5029;47.378;11.776;2023-02-11T03:08:52;4.17;;;3.50;;
9976;SDS011;5029;47.378;11.776;2023-02-11T03:14:01;5.47;;;3.60;;
9976;SDS011;5029;47.378;11.776;2023-02-11T03:19:10;6.33;;;3.17;;
9976;SDS011;5029;47.378;11.776;2023-02-11T03:24:19;4.13;;;3.43;;
9976;SDS011;5029;47.378;11.776;2023-02-11T03:29:30;4.37;;;3.30;;
9976;SDS011;5029;47.378;11.776;2023-02-11T03:34:39;4.63;;;3.20;;
9976;SDS011;5029;47.378;11.776;2023-02-11T03:39:46;7.40;;;3.90;;
9976;SDS011;5029;47.378;11.776;2023-02-11T03:44:56;4.77;;;3.37;;
9976;SDS011;5029;47.378;11.776;2023-02-11T03:50:05;5.07;;;3.67;;
9976;SDS011;5029;47.378;11.776;2023-02-11T03:55:12;4.17;;;3.13;;
9976;SDS011;5029;47.378;11.776;2023-02-11T04:00:18;4.57;;;3.40;;
9976;SDS011;5029;47.378;11.776;2023-02-11T04:05:23;5.93;;;3.30;;
9976;SDS011;5029;47.378;11.776;2023-02-11T04:10:26;5.40;;;3.20;;
9976;SDS011;5029;47.378;11.776;2023-02-11T04:15:30;5.23;;;3.40;;
9976;SDS011;5029;47.378;11.776;2023-02-11T04:20:35;4.27;;;3.20;;
9976;SDS011;5029;47.378;11.776;2023-02-11T04:25:38;4.53;;;3.27;;
9976;SDS011;5029;47.378;11.776;2023-02-11T04:30:42;6.37;;;3.53;;
9976;SDS011;5029;47.378;11.776;2023-02-11T04:35:47;7.27;;;3.20;;
9976;SDS011;5029;47.378;11.776;2023-02-11T04:40:50;7.27;;;3.03;;
9976;SDS011;5029;47.378;11.776;2023-02-11T04:45:55;4.53;;;3.30;;
9976;SDS011;5029;47.378;11.776;2023-02-11T04:51:01;8.57;;;3.50;;
9976;SDS011;5029;47.378;11.776;2023-02-11T04:56:05;10.30;;;3.43;;
9976;SDS011;5029;47.378;11.776;2023-02-11T05:01:09;5.50;;;3.80;;
9976;SDS011;5029;47.378;11.776;2023-02-11T05:06:16;4.60;;;3.60;;
9976;SDS011;5029;47.378;11.776;2023-02-11T05:11:21;8.83;;;3.53;;
9976;SDS011;5029;47.378;11.776;2023-02-11T05:16:26;4.20;;;3.70;;
9976;SDS011;5029;47.378;11.776;2023-02-11T05:21:31;4.50;;;3.60;;
9976;SDS011;5029;47.378;11.776;2023-02-11T05:26:34;5.50;;;3.67;;
9976;SDS011;5029;47.378;11.776;2023-02-11T05:31:38;5.00;;;3.47;;
9976;SDS011;5029;47.378;11.776;2023-02-11T05:36:43;4.30;;;3.40;;
9976;SDS011;5029;47.378;11.776;2023-02-11T05:41:46;6.57;;;3.90;;
9976;SDS011;5029;47.378;11.776;2023-02-11T05:46:50;5.67;;;3.13;;
9976;SDS011;5029;47.378;11.776;2023-02-11T05:51:55;4.47;;;3.10;;
9976;SDS011;5029;47.378;11.776;2023-02-11T05:56:58;5.23;;;3.67;;
9976;SDS011;5029;47.378;11.776;2023-02-11T06:02:02;4.20;;;3.23;;
9976;SDS011;5029;47.378;11.776;2023-02-11T06:07:06;5.83;;;3.70;;
9976;SDS011;5029;47.378;11.776;2023-02-11T06:12:10;4.77;;;3.80;;
9976;SDS011;5029;47.378;11.776;2023-02-11T06:17:13;3.67;;;3.30;;
9976;SDS011;5029;47.378;11.776;2023-02-11T06:22:18;6.47;;;3.60;;
9976;SDS011;5029;47.378;11.776;2023-02-11T06:27:22;4.37;;;3.70;;
9976;SDS011;5029;47.378;11.776;2023-02-11T06:32:25;5.00;;;3.87;;
9976;SDS011;5029;47.378;11.776;2023-02-11T06:37:45;6.53;;;5.03;;
9976;SDS011;5029;47.378;11.776;2023-02-11T06:42:50;7.20;;;6.50;;
9976;SDS011;5029;47.378;11.776;2023-02-11T06:47:53;3.67;;;3.37;;
9976;SDS011;5029;47.378;11.776;2023-02-11T06:52:58;4.83;;;3.63;;
9976;SDS011;5029;47.378;11.776;2023-02-11T06:58:02;4.37;;;3.50;;
9976;SDS011;5029;47.378;11.776;2023-02-11T07:03:05;3.83;;;3.27;;
9976;SDS011;5029;47.378;11.776;2023-02-11T07:08:11;4.03;;;3.57;;
9976;SDS011;5029;47.378;11.776;2023-02-11T07:13:14;3.93;;;3.37;;
9976;SDS011;5029;47.378;11.776;2023-02-11T07:18:17;4.70;;;4.00;;
9976;SDS011;5029;47.378;11.776;2023-02-11T07:23:22;4.57;;;3.70;;
9976;SDS011;5029;47.378;11.776;2023-02-11T07:28:25;7.20;;;4.33;;
9976;SDS011;5029;47.378;11.776;2023-02-11T07:33:29;8.03;;;4.17;;
9976;SDS011;5029;47.378;11.776;2023-02-11T07:38:34;4.73;;;3.63;;
9976;SDS011;5029;47.378;11.776;2023-02-11T07:43:38;9.93;;;4.87;;
9976;SDS011;5029;47.378;11.776;2023-02-11T07:48:43;7.03;;;5.20;;
9976;SDS011;5029;47.378;11.776;2023-02-11T07:53:48;4.80;;;4.20;;
9976;SDS011;5029;47.378;11.776;2023-02-11T07:58:52;6.03;;;4.53;;
9976;SDS011;5029;47.378;11.776;2023-02-11T08:03:58;6.23;;;3.90;;
9976;SDS011;5029;47.378;11.776;2023-02-11T08:09:04;4.97;;;3.57;;
9976;SDS011;5029;47.378;11.776;2023-02-11T08:14:09;5.80;;;4.03;;
9976;SDS011;5029;47.378;11.776;2023-02-11T08:19:14;4.73;;;3.93;;
9976;SDS011;5029;47.378;11.776;2023-02-11T08:24:20;5.30;;;3.70;;
9976;SDS011;5029;47.378;11.776;2023-02-11T08:29:23;6.97;;;4.33;;
9976;SDS011;5029;47.378;11.776;2023-02-11T08:34:27;5.57;;;4.00;;
9976;SDS011;5029;47.378;11.776;2023-02-11T08:39:32;5.53;;;3.90;;
9976;SDS011;5029;47.378;11.776;2023-02-11T08:44:35;4.17;;;3.43;;
9976;SDS011;5029;47.378;11.776;2023-02-11T08:49:38;5.37;;;3.47;;
9976;SDS011;5029;47.378;11.776;2023-02-11T08:54:44;10.87;;;7.00;;
9976;SDS011;5029;47.378;11.776;2023-02-11T08:59:47;7.20;;;4.33;;
9976;SDS011;5029;47.378;11.776;2023-02-11T09:04:51;5.47;;;4.40;;
9976;SDS011;5029;47.378;11.776;2023-02-11T09:09:55;5.27;;;4.10;;
9976;SDS011;5029;47.378;11.776;2023-02-11T09:14:59;4.47;;;4.07;;
9976;SDS011;5029;47.378;11.776;2023-02-11T09:20:02;4.07;;;3.20;;
9976;SDS011;5029;47.378;11.776;2023-02-11T09:25:09;4.93;;;3.23;;
9976;SDS011;5029;47.378;11.776;2023-02-11T09:30:13;7.33;;;4.07;;
9976;SDS011;5029;47.378;11.776;2023-02-11T09:35:16;4.57;;;3.10;;
9976;SDS011;5029;47.378;11.776;2023-02-11T09:40:21;4.87;;;3.33;;
9976;SDS011;5029;47.378;11.776;2023-02-11T09:45:25;5.00;;;3.63;;
9976;SDS011;5029;47.378;11.776;2023-02-11T09:50:31;4.17;;;3.10;;
9976;SDS011;5029;47.378;11.776;2023-02-11T09:55:39;4.40;;;3.17;;
9976;SDS011;5029;47.378;11.776;2023-02-11T10:00:45;4.37;;;3.30;;
9976;SDS011;5029;47.378;11.776;2023-02-11T10:05:58;4.97;;;3.37;;
9976;SDS011;5029;47.378;11.776;2023-02-11T10:11:17;5.43;;;4.03;;
9976;SDS011;5029;47.378;11.776;2023-02-11T10:16:40;5.37;;;3.20;;
9976;SDS011;5029;47.378;11.776;2023-02-11T10:21:57;3.90;;;3.10;;
9976;SDS011;5029;47.378;11.776;2023-02-11T10:27:13;5.73;;;4.37;;
9976;SDS011;5029;47.378;11.776;2023-02-11T10:32:25;10.97;;;3.80;;
9976;SDS011;5029;47.378;11.776;2023-02-11T10:37:32;4.57;;;3.50;;
9976;SDS011;5029;47.378;11.776;2023-02-11T10:42:37;6.07;;;3.47;;
9976;SDS011;5029;47.378;11.776;2023-02-11T10:47:42;6.87;;;3.30;;
9976;SDS011;5029;47.378;11.776;2023-02-11T10:52:46;5.17;;;3.70;;
9976;SDS011;5029;47.378;11.776;2023-02-11T10:57:53;5.03;;;3.70;;
9976;SDS011;5029;47.378;11.776;2023-02-11T11:02:59;7.93;;;3.70;;
9976;SDS011;5029;47.378;11.776;2023-02-11T11:08:04;4.77;;;3.30;;
9976;SDS011;5029;47.378;11.776;2023-02-11T11:13:27;3.67;;;2.87;;
9976;SDS011;5029;47.378;11.776;2023-02-11T11:18:31;5.40;;;3.43;;
9976;SDS011;5029;47.378;11.776;2023-02-11T11:23:35;4.07;;;3.07;;
9976;SDS011;5029;47.378;11.776;2023-02-11T11:28:42;6.17;;;3.37;;
9976;SDS011;5029;47.378;11.776;2023-02-11T11:33:55;6.50;;;3.23;;
9976;SDS011;5029;47.378;11.776;2023-02-11T11:39:01;4.63;;;3.03;;
9976;SDS011;5029;47.378;11.776;2023-02-11T11:44:20;3.77;;;3.03;;
9976;SDS011;5029;47.378;11.776;2023-02-11T11:49:29;5.43;;;3.07;;
9976;SDS011;5029;47.378;11.776;2023-02-11T11:54:36;3.50;;;2.70;;
9976;SDS011;5029;47.378;11.776;2023-02-11T11:59:43;3.73;;;2.70;;
9976;SDS011;5029;47.378;11.776;2023-02-11T12:04:53;3.30;;;2.70;;
9976;SDS011;5029;47.378;11.776;2023-02-11T12:10:14;3.57;;;3.23;;
9976;SDS011;5029;47.378;11.776;2023-02-11T12:15:35;4.63;;;3.53;;
9976;SDS011;5029;47.378;11.776;2023-02-11T12:20:50;4.07;;;3.53;;
9976;SDS011;5029;47.378;11.776;2023-02-11T12:26:06;7.03;;;2.87;;
9976;SDS011;5029;47.378;11.776;2023-02-11T12:31:20;3.57;;;2.83;;
9976;SDS011;5029;47.378;11.776;2023-02-11T12:36:40;3.50;;;2.77;;
9976;SDS011;5029;47.378;11.776;2023-02-11T12:41:59;3.97;;;2.63;;
9976;SDS011;5029;47.378;11.776;2023-02-11T12:47:38;3.93;;;3.53;;
9976;SDS011;5029;47.378;11.776;2023-02-11T12:52:54;4.00;;;3.40;;
9976;SDS011;5029;47.378;11.776;2023-02-11T12:58:09;9.37;;;3.33;;
9976;SDS011;5029;47.378;11.776;2023-02-11T13:03:19;3.53;;;2.70;;
9976;SDS011;5029;47.378;11.776;2023-02-11T13:08:27;4.77;;;2.60;;
9976;SDS011;5029;47.378;11.776;2023-02-11T13:13:36;5.30;;;3.53;;
9976;SDS011;5029;47.378;11.776;2023-02-11T13:18:50;4.53;;;2.97;;
9976;SDS011;5029;47.378;11.776;2023-02-11T13:24:01;4.20;;;2.87;;
9976;SDS011;5029;47.378;11.776;2023-02-11T13:34:56;4.80;;;2.90;;
9976;SDS011;5029;47.378;11.776;2023-02-11T13:40:01;5.87;;;3.10;;
9976;SDS011;5029;47.378;11.776;2023-02-11T13:45:15;5.30;;;3.30;;
9976;SDS011;5029;47.378;11.776;2023-02-11T13:50:22;3.43;;;2.97;;
9976;SDS011;5029;47.378;11.776;2023-02-11T13:55:27;3.87;;;2.97;;
9976;SDS011;5029;47.378;11.776;2023-02-11T14:00:42;5.57;;;3.37;;
9976;SDS011;5029;47.378;11.776;2023-02-11T14:11:45;4.93;;;3.20;;
9976;SDS011;5029;47.378;11.776;2023-02-11T14:22:42;5.37;;;3.43;;
9976;SDS011;5029;47.378;11.776;2023-02-11T14:27:50;4.43;;;3.33;;
9976;SDS011;5029;47.378;11.776;2023-02-11T14:38:42;4.70;;;3.30;;
9976;SDS011;5029;47.378;11.776;2023-02-11T14:43:58;3.30;;;3.00;;
9976;SDS011;5029;47.378;11.776;2023-02-11T14:49:06;4.83;;;3.33;;
9976;SDS011;5029;47.378;11.776;2023-02-11T14:54:19;4.00;;;3.20;;
9976;SDS011;5029;47.378;11.776;2023-02-11T14:59:27;5.93;;;3.27;;
9976;SDS011;5029;47.378;11.776;2023-02-11T15:04:32;6.17;;;3.10;;
9976;SDS011;5029;47.378;11.776;2023-02-11T15:09:40;4.37;;;3.20;;
9976;SDS011;5029;47.378;11.776;2023-02-11T15:14:47;4.33;;;3.53;;
9976;SDS011;5029;47.378;11.776;2023-02-11T15:19:54;4.23;;;3.27;;
9976;SDS011;5029;47.378;11.776;2023-02-11T15:25:07;5.67;;;3.10;;
9976;SDS011;5029;47.378;11.776;2023-02-11T15:30:28;7.27;;;3.00;;
9976;SDS011;5029;47.378;11.776;2023-02-11T15:35:36;5.73;;;3.87;;
9976;SDS011;5029;47.378;11.776;2023-02-11T15:40:51;4.40;;;2.90;;
9976;SDS011;5029;47.378;11.776;2023-02-11T15:45:59;4.10;;;3.70;;
9976;SDS011;5029;47.378;11.776;2023-02-11T15:51:07;4.03;;;3.10;;
9976;SDS011;5029;47.378;11.776;2023-02-11T15:56:19;5.37;;;3.40;;
9976;SDS011;5029;47.378;11.776;2023-02-11T16:01:27;5.83;;;3.73;;
9976;SDS011;5029;47.378;11.776;2023-02-11T16:06:35;4.00;;;3.33;;
9976;SDS011;5029;47.378;11.776;2023-02-11T16:11:54;5.40;;;2.90;;
9976;SDS011;5029;47.378;11.776;2023-02-11T16:17:04;3.97;;;3.30;;
9976;SDS011;5029;47.378;11.776;2023-02-11T16:22:17;5.30;;;3.70;;
9976;SDS011;5029;47.378;11.776;2023-02-11T16:27:27;4.87;;;3.17;;
9976;SDS011;5029;47.378;11.776;2023-02-11T16:32:37;4.67;;;3.30;;
9976;SDS011;5029;47.378;11.776;2023-02-11T16:37:43;4.80;;;3.57;;
9976;SDS011;5029;47.378;11.776;2023-02-11T16:42:51;6.53;;;3.53;;
9976;SDS011;5029;47.378;11.776;2023-02-11T16:47:55;4.30;;;3.57;;
9976;SDS011;5029;47.378;11.776;2023-02-11T16:53:01;7.43;;;4.17;;
9976;SDS011;5029;47.378;11.776;2023-02-11T16:58:10;7.33;;;4.43;;
9976;SDS011;5029;47.378;11.776;2023-02-11T17:03:15;6.37;;;4.27;;
9976;SDS011;5029;47.378;11.776;2023-02-11T17:08:24;5.77;;;4.10;;
9976;SDS011;5029;47.378;11.776;2023-02-11T17:13:31;9.73;;;3.90;;
9976;SDS011;5029;47.378;11.776;2023-02-11T17:18:37;5.77;;;3.70;;
9976;SDS011;5029;47.378;11.776;2023-02-11T17:23:41;5.77;;;4.60;;
9976;SDS011;5029;47.378;11.776;2023-02-11T17:28:50;5.73;;;3.63;;
9976;SDS011;5029;47.378;11.776;2023-02-11T17:33:55;6.20;;;4.00;;
9976;SDS011;5029;47.378;11.776;2023-02-11T17:39:00;3.20;;;2.30;;
9976;SDS011;5029;47.378;11.776;2023-02-11T17:44:10;3.30;;;2.60;;
9976;SDS011;5029;47.378;11.776;2023-02-11T17:49:15;2.53;;;2.30;;
9976;SDS011;5029;47.378;11.776;2023-02-11T17:54:20;2.97;;;2.33;;
9976;SDS011;5029;47.378;11.776;2023-02-11T17:59:27;3.83;;;3.10;;
9976;SDS011;5029;47.378;11.776;2023-02-11T18:04:36;5.87;;;5.20;;
9976;SDS011;5029;47.378;11.776;2023-02-11T18:09:44;5.50;;;2.40;;
9976;SDS011;5029;47.378;11.776;2023-02-11T18:14:54;18.13;;;16.30;;
9976;SDS011;5029;47.378;11.776;2023-02-11T18:19:59;10.33;;;8.13;;
9976;SDS011;5029;47.378;11.776;2023-02-11T18:25:06;2.70;;;2.30;;
9976;SDS011;5029;47.378;11.776;2023-02-11T18:30:14;5.27;;;2.90;;
9976;SDS011;5029;47.378;11.776;2023-02-11T18:35:22;2.97;;;2.57;;
9976;SDS011;5029;47.378;11.776;2023-02-11T18:40:27;5.80;;;3.97;;
9976;SDS011;5029;47.378;11.776;2023-02-11T18:45:34;6.63;;;3.40;;
9976;SDS011;5029;47.378;11.776;2023-02-11T18:50:45;4.93;;;2.43;;
9976;SDS011;5029;47.378;11.776;2023-02-11T18:55:52;3.10;;;2.20;;
9976;SDS011;5029;47.378;11.776;2023-02-11T19:00:59;3.63;;;2.93;;
9976;SDS011;5029;47.378;11.776;2023-02-11T19:06:05;9.20;;;6.00;;
9976;SDS011;5029;47.378;11.776;2023-02-11T19:11:11;7.70;;;6.30;;
9976;SDS011;5029;47.378;11.776;2023-02-11T19:16:20;11.30;;;5.43;;
9976;SDS011;5029;47.378;11.776;2023-02-11T19:21:26;10.03;;;6.03;;
9976;SDS011;5029;47.378;11.776;2023-02-11T19:26:30;6.17;;;4.97;;
9976;SDS011;5029;47.378;11.776;2023-02-11T19:31:37;8.23;;;5.07;;
9976;SDS011;5029;47.378;11.776;2023-02-11T19:36:43;7.40;;;5.23;;
9976;SDS011;5029;47.378;11.776;2023-02-11T19:41:49;8.83;;;4.63;;
9976;SDS011;5029;47.378;11.776;2023-02-11T19:46:56;6.00;;;4.23;;
9976;SDS011;5029;47.378;11.776;2023-02-11T19:52:02;8.20;;;4.80;;
9976;SDS011;5029;47.378;11.776;2023-02-11T19:57:08;7.23;;;4.30;;
9976;SDS011;5029;47.378;11.776;2023-02-11T20:02:14;7.73;;;5.80;;
9976;SDS011;5029;47.378;11.776;2023-02-11T20:07:19;6.77;;;5.13;;
9976;SDS011;5029;47.378;11.776;2023-02-11T20:12:24;5.80;;;4.73;;
9976;SDS011;5029;47.378;11.776;2023-02-11T20:17:36;8.70;;;5.17;;
9976;SDS011;5029;47.378;11.776;2023-02-11T20:22:41;6.93;;;5.00;;
9976;SDS011;5029;47.378;11.776;2023-02-11T20:27:48;6.00;;;4.90;;
9976;SDS011;5029;47.378;11.776;2023-02-11T20:32:54;7.13;;;5.30;;
9976;SDS011;5029;47.378;11.776;2023-02-11T20:37:59;6.33;;;5.40;;
9976;SDS011;5029;47.378;11.776;2023-02-11T20:43:04;5.87;;;4.90;;
9976;SDS011;5029;47.378;11.776;2023-02-11T20:48:11;8.23;;;6.03;;
9976;SDS011;5029;47.378;11.776;2023-02-11T20:53:16;11.17;;;7.83;;
9976;SDS011;5029;47.378;11.776;2023-02-11T20:58:21;9.37;;;7.70;;
9976;SDS011;5029;47.378;11.776;2023-02-11T21:03:27;10.90;;;6.77;;
9976;SDS011;5029;47.378;11.776;2023-02-11T21:08:35;7.37;;;5.50;;
9976;SDS011;5029;47.378;11.776;2023-02-11T21:13:43;9.70;;;6.43;;
9976;SDS011;5029;47.378;11.776;2023-02-11T21:18:49;6.40;;;5.70;;
9976;SDS011;5029;47.378;11.776;2023-02-11T21:23:54;5.90;;;4.87;;
9976;SDS011;5029;47.378;11.776;2023-02-11T21:29:00;6.57;;;4.73;;
9976;SDS011;5029;47.378;11.776;2023-02-11T21:34:11;7.63;;;5.80;;
9976;SDS011;5029;47.378;11.776;2023-02-11T21:39:17;8.50;;;6.57;;
9976;SDS011;5029;47.378;11.776;2023-02-11T21:44:23;8.73;;;6.97;;
9976;SDS011;5029;47.378;11.776;2023-02-11T21:49:29;8.53;;;6.40;;
9976;SDS011;5029;47.378;11.776;2023-02-11T21:54:35;9.37;;;5.47;;
9976;SDS011;5029;47.378;11.776;2023-02-11T21:59:39;7.83;;;4.97;;
9976;SDS011;5029;47.378;11.776;2023-02-11T22:04:44;5.80;;;4.07;;
9976;SDS011;5029;47.378;11.776;2023-02-11T22:09:49;7.70;;;4.27;;
9976;SDS011;5029;47.378;11.776;2023-02-11T22:14:55;7.67;;;5.70;;
9976;SDS011;5029;47.378;11.776;2023-02-11T22:20:00;6.67;;;5.80;;
9976;SDS011;5029;47.378;11.776;2023-02-11T22:25:04;7.73;;;6.40;;
9976;SDS011;5029;47.378;11.776;2023-02-11T22:30:08;8.37;;;6.40;;
9976;SDS011;5029;47.378;11.776;2023-02-11T22:35:14;7.53;;;6.37;;
9976;SDS011;5029;47.378;11.776;2023-02-11T22:40:18;6.60;;;5.33;;
9976;SDS011;5029;47.378;11.776;2023-02-11T22:45:21;5.73;;;4.70;;
9976;SDS011;5029;47.378;11.776;2023-02-11T22:50:26;6.23;;;4.20;;
9976;SDS011;5029;47.378;11.776;2023-02-11T22:55:30;6.93;;;5.90;;
9976;SDS011;5029;47.378;11.776;2023-02-11T23:00:38;8.17;;;6.40;;
9976;SDS011;5029;47.378;11.776;2023-02-11T23:05:44;10.07;;;7.23;;
9976;SDS011;5029;47.378;11.776;2023-02-11T23:10:47;8.97;;;6.87;;
9976;SDS011;5029;47.378;11.776;2023-02-11T23:15:51;9.43;;;6.53;;
9976;SDS011;5029;47.378;11.776;2023-02-11T23:21:01;8.60;;;7.00;;
9976;SDS011;5029;47.378;11.776;2023-02-11T23:26:07;9.47;;;6.63;;
9976;SDS011;5029;47.378;11.776;2023-02-11T23:31:12;8.53;;;6.63;;
9976;SDS011;5029;47.378;11.776;2023-02-11T23:36:24;8.33;;;6.37;;
9976;SDS011;5029;47.378;11.776;2023-02-11T23:41:27;8.93;;;6.43;;
9976;SDS011;5029;47.378;11.776;2023-02-11T23:46:31;9.80;;;7.63;;
9976;SDS011;5029;47.378;11.776;2023-02-11T23:51:36;8.10;;;6.83;;
9976;SDS011;5029;47.378;11.776;2023-02-11T23:56:39;7.77;;;6.67;;
